Time;durP1;ratioP1;P1;durP2;ratioP2;P2;SDS_P1;SDS_P2;PMS_P1;PMS_P2;Temp;Humidity;BMP_temperature;BMP_pressure;BME280_temperature;BME280_humidity;BME280_pressure;Samples;Min_cycle;Max_cycle;Signal;HPM_P1;HPM_P2
2021/12/30 00:00:00;;;;;;;19.30;10.80;;;;;;;2.05;91.72;96234.81;103096;1322;35078;-74
2021/12/30 00:02:32;;;;;;;16.70;9.50;;;;;;;2.05;91.55;96236.70;103003;1323;31876;-74
2021/12/30 00:05:03;;;;;;;21.50;11.70;;;;;;;2.05;91.27;96231.92;103067;1323;32546;-74
2021/12/30 00:07:34;;;;;;;14.60;8.30;;;;;;;2.05;91.08;96232.03;103022;1323;35964;-74
2021/12/30 00:10:07;;;;;;;20.80;10.50;;;;;;;2.04;91.11;96236.66;104100;1316;53420;-74
2021/12/30 00:12:41;;;;;;;20.00;10.20;;;;;;;2.02;90.88;96240.67;103739;1316;40837;-74
2021/12/30 00:15:12;;;;;;;18.20;7.70;;;;;;;2.02;90.74;96241.65;103829;1316;31120;-74
2021/12/30 00:17:46;;;;;;;14.50;8.80;;;;;;;2.01;90.74;96239.09;103858;1316;28295;-74
2021/12/30 00:20:17;;;;;;;15.40;9.40;;;;;;;2.03;90.74;96244.64;103902;1316;30738;-74
2021/12/30 00:22:48;;;;;;;17.10;9.40;;;;;;;2.02;90.80;96244.48;103844;1316;37946;-74
2021/12/30 00:25:20;;;;;;;18.00;8.80;;;;;;;2.04;90.58;96251.89;103926;1316;41421;-74
2021/12/30 00:27:51;;;;;;;17.10;7.40;;;;;;;2.10;90.68;96249.75;103943;1315;37449;-74
2021/12/30 00:30:21;;;;;;;18.30;8.50;;;;;;;2.17;90.50;96249.93;103897;1316;42278;-74
2021/12/30 00:32:52;;;;;;;15.00;8.40;;;;;;;2.20;90.28;96252.70;103823;1315;40764;-75
2021/12/30 00:35:23;;;;;;;14.90;8.60;;;;;;;2.21;90.06;96254.70;103921;1315;42444;-75
2021/12/30 00:37:54;;;;;;;17.60;6.80;;;;;;;2.23;90.03;96260.06;103958;1316;26422;-75
2021/12/30 00:40:25;;;;;;;17.80;9.00;;;;;;;2.22;89.93;96255.34;103971;1314;39219;-75
2021/12/30 00:42:57;;;;;;;14.90;8.40;;;;;;;2.19;89.86;96260.67;103956;1315;47065;-74
2021/12/30 00:45:28;;;;;;;17.40;9.90;;;;;;;2.16;89.86;96262.11;103893;1315;29106;-74
2021/12/30 00:47:59;;;;;;;18.00;8.50;;;;;;;2.13;89.70;96267.52;103886;1315;36667;-74
2021/12/30 00:50:31;;;;;;;15.60;7.30;;;;;;;2.07;89.83;96268.67;103851;1315;40950;-74
2021/12/30 00:53:02;;;;;;;18.30;9.40;;;;;;;2.06;89.82;96271.89;103956;1316;28794;-74
2021/12/30 00:55:33;;;;;;;21.70;12.10;;;;;;;2.05;90.06;96278.83;103977;1315;34559;-74
2021/12/30 00:58:05;;;;;;;20.90;9.90;;;;;;;2.05;89.95;96285.41;103966;1315;33638;-74
2021/12/30 01:00:38;;;;;;;17.40;9.70;;;;;;;2.05;90.01;96283.91;103996;1315;27747;-74
2021/12/30 01:03:11;;;;;;;16.90;8.70;;;;;;;2.06;90.00;96284.86;103850;1315;44016;-74
2021/12/30 01:05:43;;;;;;;17.90;9.60;;;;;;;2.06;89.98;96286.48;104193;1315;28500;-74
2021/12/30 01:08:18;;;;;;;18.20;9.60;;;;;;;2.09;90.01;96280.98;104184;1312;35217;-74
2021/12/30 01:10:51;;;;;;;17.80;10.50;;;;;;;2.11;89.93;96285.77;103986;1315;29036;-74
2021/12/30 01:13:25;;;;;;;18.20;10.80;;;;;;;2.09;89.79;96288.38;104103;1316;33984;-74
2021/12/30 01:16:00;;;;;;;18.50;10.70;;;;;;;2.09;89.85;96287.33;103844;1315;41045;-74
2021/12/30 01:18:40;;;;;;;19.00;11.10;;;;;;;2.09;89.75;96293.13;103978;1315;26798;-75
2021/12/30 01:21:13;;;;;;;22.50;12.80;;;;;;;2.10;89.80;96304.21;103937;1315;36808;-74
2021/12/30 01:23:44;;;;;;;19.70;11.30;;;;;;;2.10;89.79;96304.54;104017;1316;39155;-74
2021/12/30 01:26:15;;;;;;;22.30;12.80;;;;;;;2.11;89.82;96307.30;103849;1315;74979;-74
2021/12/30 01:28:47;;;;;;;22.10;12.60;;;;;;;2.09;89.73;96302.07;103851;1315;32319;-74
2021/12/30 01:31:20;;;;;;;21.20;11.50;;;;;;;2.05;89.60;96301.99;104010;1315;32302;-74
2021/12/30 01:33:51;;;;;;;24.20;13.40;;;;;;;2.02;89.62;96304.02;104066;1315;27897;-74
2021/12/30 01:36:25;;;;;;;23.30;13.40;;;;;;;1.98;89.77;96306.09;103947;1315;40559;-74
2021/12/30 01:38:57;;;;;;;22.70;13.40;;;;;;;1.91;89.89;96301.02;103990;1314;32021;-74
2021/12/30 01:41:28;;;;;;;16.40;9.80;;;;;;;1.87;89.81;96297.71;103877;1315;38885;-74
2021/12/30 01:43:58;;;;;;;17.90;10.90;;;;;;;1.91;89.98;96298.77;104122;1315;37782;-74
2021/12/30 01:46:40;;;;;;;16.20;8.60;;;;;;;1.92;89.90;96302.04;104126;1315;36824;-74
2021/12/30 01:49:12;;;;;;;15.80;9.10;;;;;;;1.97;90.05;96293.27;104129;1315;33077;-74
2021/12/30 01:51:44;;;;;;;13.90;6.90;;;;;;;2.00;89.95;96294.06;104205;1313;31456;-74
2021/12/30 01:54:15;;;;;;;13.20;6.20;;;;;;;2.03;89.97;96295.73;104004;1315;33298;-74
2021/12/30 01:56:49;;;;;;;13.00;7.60;;;;;;;2.05;89.85;96304.52;104078;1315;42040;-74
2021/12/30 01:59:24;;;;;;;12.70;6.80;;;;;;;2.08;89.55;96306.59;104249;1316;31798;-74
2021/12/30 02:01:56;;;;;;;11.80;6.10;;;;;;;2.09;89.56;96312.00;104147;1313;46636;-74
2021/12/30 02:04:28;;;;;;;11.80;6.90;;;;;;;2.09;89.34;96319.80;104161;1314;34591;-74
2021/12/30 02:07:00;;;;;;;16.70;8.80;;;;;;;2.08;89.41;96316.59;104183;1311;30383;-74
2021/12/30 02:09:31;;;;;;;14.80;6.50;;;;;;;2.13;89.37;96320.36;104221;1314;31903;-74
2021/12/30 02:12:04;;;;;;;11.10;7.20;;;;;;;2.14;89.43;96320.69;104199;1315;25813;-74
2021/12/30 02:14:36;;;;;;;12.60;7.60;;;;;;;2.15;89.17;96321.95;104150;1315;41146;-74
2021/12/30 02:17:08;;;;;;;14.10;8.00;;;;;;;2.17;89.21;96322.88;104172;1315;38068;-74
2021/12/30 02:19:39;;;;;;;14.00;7.70;;;;;;;2.19;89.18;96319.41;104144;1314;35997;-74
2021/12/30 02:22:10;;;;;;;17.00;8.30;;;;;;;2.21;89.24;96314.73;103936;1309;27692;-74
2021/12/30 02:24:49;;;;;;;11.70;7.40;;;;;;;2.20;89.18;96310.17;103838;1315;40868;-74
2021/12/30 02:27:21;;;;;;;16.30;8.40;;;;;;;2.15;88.94;96306.11;103963;1315;38890;-74
2021/12/30 02:29:52;;;;;;;12.50;6.90;;;;;;;2.07;89.04;96304.12;103988;1315;35435;-74
2021/12/30 02:32:26;;;;;;;12.30;6.50;;;;;;;1.98;89.19;96299.02;104090;1315;36524;-74
2021/12/30 02:34:57;;;;;;;12.80;6.60;;;;;;;1.93;89.40;96296.67;103904;1315;42455;-74
2021/12/30 02:37:28;;;;;;;10.20;5.20;;;;;;;1.90;89.39;96301.48;103940;1315;36938;-74
2021/12/30 02:39:58;;;;;;;13.80;7.10;;;;;;;1.89;89.56;96288.91;103846;1315;33338;-74
2021/12/30 02:42:29;;;;;;;11.70;7.00;;;;;;;1.91;89.61;96294.23;103880;1315;40680;-74
2021/12/30 02:45:00;;;;;;;15.20;7.10;;;;;;;1.89;89.56;96303.72;103979;1311;30832;-74
2021/12/30 02:47:35;;;;;;;11.80;5.30;;;;;;;1.84;89.66;96302.77;103929;1315;36922;-74
2021/12/30 02:50:06;;;;;;;11.90;5.90;;;;;;;1.84;89.61;96297.92;103912;1315;29401;-74
2021/12/30 02:52:37;;;;;;;8.10;5.10;;;;;;;1.84;89.63;96301.73;103878;1315;30420;-74
2021/12/30 02:55:10;;;;;;;14.30;5.10;;;;;;;1.87;89.64;96308.06;103997;1315;30370;-74
2021/12/30 02:57:41;;;;;;;10.80;6.30;;;;;;;1.93;89.77;96311.84;103888;1312;31808;-74
2021/12/30 03:00:14;;;;;;;7.30;3.40;;;;;;;1.98;89.53;96314.24;103918;1315;45631;-74
2021/12/30 03:02:45;;;;;;;9.20;5.20;;;;;;;2.01;89.70;96314.95;103832;1315;38068;-74
2021/12/30 03:05:19;;;;;;;13.30;7.10;;;;;;;2.04;89.59;96309.20;103883;1310;40759;-74
2021/12/30 03:07:50;;;;;;;12.10;6.90;;;;;;;2.04;89.36;96314.23;103923;1315;27733;-74
2021/12/30 03:10:24;;;;;;;12.50;7.50;;;;;;;2.03;89.40;96312.77;104009;1315;32138;-74
2021/12/30 03:13:03;;;;;;;15.10;7.70;;;;;;;2.01;89.41;96313.69;103891;1316;29197;-74
2021/12/30 03:15:33;;;;;;;12.30;7.30;;;;;;;2.01;89.37;96307.30;103921;1315;28820;-74
2021/12/30 03:18:05;;;;;;;13.50;7.20;;;;;;;2.02;89.36;96310.09;103929;1315;32978;-74
2021/12/30 03:20:38;;;;;;;15.20;8.50;;;;;;;2.02;89.26;96310.73;103942;1315;41865;-74
2021/12/30 03:23:09;;;;;;;9.50;6.10;;;;;;;2.04;89.23;96302.70;103869;1316;45633;-75
2021/12/30 03:25:41;;;;;;;17.30;8.80;;;;;;;2.01;89.20;96301.51;103895;1315;39361;-74
2021/12/30 03:28:12;;;;;;;12.40;5.80;;;;;;;1.97;89.10;96299.22;103949;1315;40633;-74
2021/12/30 03:30:43;;;;;;;11.80;7.20;;;;;;;1.94;89.37;96309.71;103904;1315;28675;-74
2021/12/30 03:33:15;;;;;;;14.20;7.70;;;;;;;1.94;89.32;96303.85;103859;1316;28988;-74
2021/12/30 03:35:46;;;;;;;9.30;4.90;;;;;;;1.92;89.39;96305.02;103899;1315;29587;-74
2021/12/30 03:38:17;;;;;;;9.70;6.00;;;;;;;1.90;89.42;96297.62;103867;1316;37894;-74
2021/12/30 03:40:48;;;;;;;7.80;5.60;;;;;;;1.89;89.40;96303.72;104045;1315;27889;-74
2021/12/30 03:43:21;;;;;;;7.30;4.20;;;;;;;1.92;89.53;96311.45;103965;1315;38603;-74
2021/12/30 03:45:52;;;;;;;10.00;5.50;;;;;;;1.97;89.40;96313.13;104048;1315;27859;-74
2021/12/30 03:48:31;;;;;;;8.10;4.90;;;;;;;2.02;89.42;96323.52;103887;1313;38529;-75
2021/12/30 03:51:06;;;;;;;10.40;5.30;;;;;;;2.08;89.37;96328.03;104433;1311;43093;-75
2021/12/30 03:53:39;;;;;;;8.30;4.80;;;;;;;2.09;89.26;96329.89;104396;1310;34637;-75
2021/12/30 03:56:14;;;;;;;6.00;4.30;;;;;;;2.11;89.23;96334.33;104330;1311;37471;-75
2021/12/30 03:58:46;;;;;;;4.40;2.50;;;;;;;2.13;89.13;96345.26;104382;1311;39541;-74
2021/12/30 04:01:20;;;;;;;7.10;4.40;;;;;;;2.14;89.24;96346.74;104414;1312;30418;-74
2021/12/30 04:03:52;;;;;;;5.80;4.40;;;;;;;2.15;89.22;96356.02;104407;1312;40189;-74
2021/12/30 04:06:24;;;;;;;6.80;4.30;;;;;;;2.16;89.31;96366.34;104302;1312;30053;-75
2021/12/30 04:08:55;;;;;;;8.40;5.00;;;;;;;2.17;89.07;96374.09;104402;1311;38479;-75
2021/12/30 04:11:33;;;;;;;8.40;5.30;;;;;;;2.16;88.96;96376.79;104416;1312;30528;-74
2021/12/30 04:14:05;;;;;;;8.60;5.40;;;;;;;2.12;89.08;96380.10;104396;1312;29378;-74
2021/12/30 04:16:36;;;;;;;9.10;5.00;;;;;;;2.09;89.11;96382.59;104448;1311;36532;-74
2021/12/30 04:19:08;;;;;;;12.20;5.90;;;;;;;2.06;88.90;96381.48;104430;1311;32755;-74
2021/12/30 04:21:38;;;;;;;11.30;6.40;;;;;;;2.02;89.04;96384.98;104447;1311;30909;-75
2021/12/30 04:24:12;;;;;;;11.00;5.90;;;;;;;2.00;89.08;96387.70;104383;1311;37866;-74
2021/12/30 04:26:43;;;;;;;9.70;6.20;;;;;;;1.98;89.21;96388.77;104468;1312;30690;-74
2021/12/30 04:29:13;;;;;;;8.90;5.30;;;;;;;1.97;89.06;96396.89;104377;1311;44859;-75
2021/12/30 04:31:44;;;;;;;9.00;5.00;;;;;;;1.98;89.29;96396.45;104376;1311;32458;-75
2021/12/30 04:34:16;;;;;;;10.50;5.20;;;;;;;2.00;89.27;96390.52;104377;1310;32153;-75
2021/12/30 04:36:47;;;;;;;6.20;3.90;;;;;;;2.01;89.48;96395.58;104373;1309;40041;-74
2021/12/30 04:39:18;;;;;;;6.80;3.40;;;;;;;2.03;89.25;96394.98;104476;1312;30861;-74
2021/12/30 04:41:49;;;;;;;7.60;4.60;;;;;;;2.03;89.29;96382.91;104470;1311;28773;-74
2021/12/30 04:44:20;;;;;;;6.70;3.70;;;;;;;2.05;89.35;96389.67;104420;1311;41630;-74
2021/12/30 04:46:51;;;;;;;7.70;4.40;;;;;;;2.06;89.34;96393.04;104524;1312;31816;-75
2021/12/30 04:49:22;;;;;;;10.30;5.10;;;;;;;2.06;89.33;96392.79;104458;1311;33109;-75
2021/12/30 04:51:53;;;;;;;7.00;3.70;;;;;;;2.08;89.28;96400.58;104485;1311;35369;-74
2021/12/30 04:54:24;;;;;;;11.20;5.60;;;;;;;2.11;89.32;96409.31;104383;1311;29901;-75
2021/12/30 04:56:55;;;;;;;7.40;3.90;;;;;;;2.10;89.21;96408.56;104435;1311;29944;-75
2021/12/30 04:59:25;;;;;;;7.60;3.80;;;;;;;2.16;89.17;96411.62;104407;1312;37750;-75
2021/12/30 05:01:58;;;;;;;8.80;4.60;;;;;;;2.19;89.31;96415.92;104337;1310;42625;-75
2021/12/30 05:04:29;;;;;;;5.70;3.60;;;;;;;2.20;89.15;96418.55;104408;1311;34705;-75
2021/12/30 05:07:00;;;;;;;7.90;4.30;;;;;;;2.20;89.29;96421.85;104384;1312;35981;-75
2021/12/30 05:09:31;;;;;;;7.20;4.50;;;;;;;2.18;89.15;96416.95;104442;1309;29352;-75
2021/12/30 05:12:05;;;;;;;9.40;4.70;;;;;;;2.16;89.18;96423.08;104410;1311;34795;-75
2021/12/30 05:14:36;;;;;;;8.10;4.50;;;;;;;2.13;89.16;96429.56;104401;1311;34604;-75
2021/12/30 05:17:07;;;;;;;10.60;5.30;;;;;;;2.13;89.16;96437.66;104380;1310;43262;-75
2021/12/30 05:19:38;;;;;;;7.30;3.70;;;;;;;2.14;89.25;96440.98;104383;1311;34091;-75
2021/12/30 05:22:11;;;;;;;10.40;5.10;;;;;;;2.18;89.39;96443.03;104389;1311;49142;-75
2021/12/30 05:24:41;;;;;;;7.50;4.30;;;;;;;2.21;89.46;96445.94;104434;1310;29536;-75
2021/12/30 05:27:12;;;;;;;7.90;3.80;;;;;;;2.23;89.35;96442.30;104410;1310;39034;-75
2021/12/30 05:29:43;;;;;;;7.90;5.10;;;;;;;2.26;89.41;96442.13;104407;1311;50132;-75
2021/12/30 05:32:14;;;;;;;8.80;4.80;;;;;;;2.26;89.41;96442.09;104422;1311;33986;-74
2021/12/30 05:34:45;;;;;;;7.00;4.40;;;;;;;2.26;89.35;96447.75;104352;1311;40953;-75
2021/12/30 05:37:16;;;;;;;6.60;4.50;;;;;;;2.25;89.27;96457.42;104403;1311;39912;-75
2021/12/30 05:39:47;;;;;;;9.60;4.90;;;;;;;2.26;89.24;96452.90;104443;1311;36965;-75
2021/12/30 05:42:18;;;;;;;5.90;3.40;;;;;;;2.28;89.22;96448.29;104355;1311;39178;-74
2021/12/30 05:44:48;;;;;;;9.40;4.90;;;;;;;2.32;89.34;96458.98;104429;1311;32794;-75
2021/12/30 05:47:19;;;;;;;6.90;4.00;;;;;;;2.38;89.51;96453.98;104453;1311;35863;-75
2021/12/30 05:49:50;;;;;;;5.20;3.10;;;;;;;2.44;89.46;96461.84;104494;1311;30339;-75
2021/12/30 05:52:21;;;;;;;6.60;3.80;;;;;;;2.48;89.35;96460.15;104491;1312;34289;-75
2021/12/30 05:54:52;;;;;;;11.20;4.10;;;;;;;2.47;89.36;96455.00;104489;1312;35148;-74
2021/12/30 05:57:22;;;;;;;5.60;3.50;;;;;;;2.43;89.20;96445.30;104575;1311;29745;-75
2021/12/30 05:59:56;;;;;;;6.40;4.00;;;;;;;2.39;89.18;96443.13;104411;1309;35913;-76
2021/12/30 06:02:27;;;;;;;8.10;3.90;;;;;;;2.36;89.39;96444.05;104421;1310;39948;-75
2021/12/30 06:04:57;;;;;;;8.00;4.60;;;;;;;2.35;89.69;96447.21;104443;1311;39802;-75
2021/12/30 06:07:28;;;;;;;6.10;3.30;;;;;;;2.34;89.91;96449.72;104404;1311;40260;-75
2021/12/30 06:10:01;;;;;;;8.90;4.90;;;;;;;2.37;90.09;96459.13;104424;1312;33550;-75
2021/12/30 06:12:32;;;;;;;7.20;3.10;;;;;;;2.37;90.19;96460.40;104396;1311;29091;-75
2021/12/30 06:15:03;;;;;;;6.30;3.50;;;;;;;2.37;90.36;96468.81;104355;1311;47623;-75
2021/12/30 06:17:36;;;;;;;7.00;3.30;;;;;;;2.37;90.31;96471.23;104385;1310;39509;-75
2021/12/30 06:20:10;;;;;;;6.70;4.00;;;;;;;2.37;90.41;96470.91;104413;1311;29034;-75
2021/12/30 06:22:41;;;;;;;7.90;4.10;;;;;;;2.38;90.42;96468.16;104417;1311;32374;-75
2021/12/30 06:25:14;;;;;;;7.20;4.50;;;;;;;2.40;90.50;96467.98;104377;1311;39613;-75
2021/12/30 06:27:45;;;;;;;6.90;4.00;;;;;;;2.41;90.48;96471.36;104376;1311;27905;-75
2021/12/30 06:30:16;;;;;;;8.00;4.40;;;;;;;2.42;90.48;96475.88;104348;1311;32765;-75
2021/12/30 06:32:47;;;;;;;7.70;4.10;;;;;;;2.43;90.51;96474.86;104443;1311;30491;-75
2021/12/30 06:35:19;;;;;;;6.90;3.90;;;;;;;2.45;90.55;96481.18;104433;1311;40199;-75
2021/12/30 06:37:50;;;;;;;7.20;4.00;;;;;;;2.48;90.50;96496.20;104459;1311;43888;-75
2021/12/30 06:40:20;;;;;;;7.80;3.80;;;;;;;2.50;90.56;96493.67;104442;1311;38984;-75
2021/12/30 06:42:51;;;;;;;9.70;4.90;;;;;;;2.52;90.59;96499.26;104431;1311;46818;-75
2021/12/30 06:45:22;;;;;;;8.50;4.50;;;;;;;2.54;90.61;96500.27;104503;1311;34603;-75
2021/12/30 06:47:53;;;;;;;5.20;3.60;;;;;;;2.58;90.67;96499.98;104402;1311;43395;-75
2021/12/30 06:50:30;;;;;;;8.10;4.70;;;;;;;2.60;90.53;96506.09;104326;1309;44179;-75
2021/12/30 06:53:01;;;;;;;5.60;3.50;;;;;;;2.60;90.56;96510.44;104314;1311;34644;-75
2021/12/30 06:55:32;;;;;;;5.60;3.50;;;;;;;2.61;90.56;96512.30;104389;1311;47062;-75
2021/12/30 06:58:03;;;;;;;9.60;4.70;;;;;;;2.65;90.69;96511.74;104367;1311;39419;-75
2021/12/30 07:00:34;;;;;;;9.40;4.90;;;;;;;2.69;90.67;96512.09;104449;1311;28480;-75
2021/12/30 07:03:06;;;;;;;10.30;4.40;;;;;;;2.70;90.59;96519.23;104305;1311;42811;-75
2021/12/30 07:05:36;;;;;;;6.50;4.10;;;;;;;2.71;90.58;96519.05;104413;1311;32437;-75
2021/12/30 07:08:08;;;;;;;8.70;4.80;;;;;;;2.74;90.64;96523.10;104397;1311;33318;-75
2021/12/30 07:10:40;;;;;;;7.70;4.60;;;;;;;2.77;90.58;96530.05;104363;1306;37340;-75
2021/12/30 07:13:11;;;;;;;7.90;4.50;;;;;;;2.79;90.36;96532.45;104444;1311;29287;-75
2021/12/30 07:15:42;;;;;;;9.20;4.70;;;;;;;2.84;90.40;96534.52;104382;1311;39691;-75
2021/12/30 07:18:13;;;;;;;7.40;4.40;;;;;;;2.88;90.39;96533.33;104398;1311;33573;-75
2021/12/30 07:20:44;;;;;;;7.90;3.90;;;;;;;2.93;90.30;96529.48;104353;1309;33207;-74
2021/12/30 07:23:16;;;;;;;7.00;3.90;;;;;;;2.96;90.23;96526.10;104390;1311;37849;-75
2021/12/30 07:25:47;;;;;;;8.70;5.00;;;;;;;2.99;90.10;96528.06;104401;1311;29618;-75
2021/12/30 07:28:18;;;;;;;7.60;3.70;;;;;;;3.00;89.95;96527.60;104385;1311;36123;-75
2021/12/30 07:30:49;;;;;;;6.00;4.40;;;;;;;3.02;89.92;96528.98;104411;1311;34820;-75
2021/12/30 07:33:20;;;;;;;7.60;3.90;;;;;;;3.03;89.92;96528.11;104506;1311;34787;-75
2021/12/30 07:35:51;;;;;;;8.40;4.50;;;;;;;3.05;89.81;96517.52;104481;1311;38681;-75
2021/12/30 07:38:23;;;;;;;7.90;4.80;;;;;;;3.07;89.67;96512.89;104448;1311;37891;-74
2021/12/30 07:40:54;;;;;;;9.00;4.90;;;;;;;3.08;89.76;96509.71;104372;1311;37783;-75
2021/12/30 07:43:25;;;;;;;10.20;5.50;;;;;;;3.08;89.71;96511.50;104414;1311;35052;-75
2021/12/30 07:45:56;;;;;;;8.90;4.70;;;;;;;3.11;89.79;96515.91;104385;1307;35280;-75
2021/12/30 07:48:30;;;;;;;9.00;4.90;;;;;;;3.14;89.74;96516.71;104430;1311;38974;-75
2021/12/30 07:51:01;;;;;;;7.20;4.10;;;;;;;3.17;89.69;96517.86;104389;1311;37379;-75
2021/12/30 07:53:32;;;;;;;8.30;4.00;;;;;;;3.21;89.57;96521.96;104433;1311;30635;-75
2021/12/30 07:56:03;;;;;;;10.20;4.60;;;;;;;3.26;89.59;96525.23;104356;1311;36739;-74
2021/12/30 07:58:34;;;;;;;9.10;5.20;;;;;;;3.31;89.50;96527.08;104401;1311;44756;-75
2021/12/30 08:01:05;;;;;;;8.00;4.20;;;;;;;3.33;89.41;96536.08;104406;1311;36607;-74
2021/12/30 08:03:38;;;;;;;8.40;4.20;;;;;;;3.35;89.39;96536.17;104331;1312;44118;-74
2021/12/30 08:06:09;;;;;;;8.60;5.20;;;;;;;3.42;89.35;96534.74;104381;1305;29139;-74
2021/12/30 08:08:42;;;;;;;8.90;4.90;;;;;;;3.50;89.29;96544.61;104408;1311;33760;-74
2021/12/30 08:11:14;;;;;;;8.70;4.70;;;;;;;3.56;89.15;96549.00;104427;1311;38442;-74
2021/12/30 08:13:45;;;;;;;8.00;3.90;;;;;;;3.62;89.05;96547.30;104383;1310;29234;-74
2021/12/30 08:16:16;;;;;;;10.20;4.60;;;;;;;3.67;88.90;96548.45;104424;1311;28993;-74
2021/12/30 08:18:47;;;;;;;8.80;4.90;;;;;;;3.72;88.75;96543.65;104422;1311;38653;-74
2021/12/30 08:21:20;;;;;;;7.10;4.40;;;;;;;3.78;88.66;96545.96;104467;1310;27026;-74
2021/12/30 08:23:51;;;;;;;7.50;4.50;;;;;;;3.87;88.61;96544.80;104491;1311;35112;-74
2021/12/30 08:26:22;;;;;;;9.80;5.00;;;;;;;3.96;88.33;96546.14;104483;1311;40187;-74
2021/12/30 08:28:53;;;;;;;9.10;4.60;;;;;;;4.08;88.42;96548.66;104400;1311;52843;-75
2021/12/30 08:31:24;;;;;;;8.00;4.80;;;;;;;4.24;88.24;96557.45;104355;1306;37221;-75
2021/12/30 08:33:56;;;;;;;8.40;4.70;;;;;;;4.31;87.65;96553.70;104422;1312;29472;-75
2021/12/30 08:36:26;;;;;;;8.50;4.40;;;;;;;4.30;87.32;96549.11;104453;1311;37102;-75
2021/12/30 08:38:58;;;;;;;7.20;4.20;;;;;;;4.31;87.01;96549.06;104417;1311;30281;-75
2021/12/30 08:41:29;;;;;;;10.30;4.90;;;;;;;4.30;86.90;96550.10;104431;1311;39164;-75
2021/12/30 08:44:00;;;;;;;8.20;4.80;;;;;;;4.32;86.86;96543.94;104505;1311;32829;-74
2021/12/30 08:46:31;;;;;;;9.40;4.80;;;;;;;4.37;86.63;96538.04;104422;1311;41126;-74
2021/12/30 08:49:03;;;;;;;7.60;4.30;;;;;;;4.43;86.82;96529.93;104440;1311;40174;-74
2021/12/30 08:51:36;;;;;;;9.20;4.70;;;;;;;4.53;86.62;96525.73;104375;1311;43437;-74
2021/12/30 08:54:07;;;;;;;9.80;5.60;;;;;;;4.64;86.56;96524.30;104376;1311;37536;-74
2021/12/30 08:56:38;;;;;;;6.70;4.60;;;;;;;4.67;86.18;96528.86;104391;1312;35846;-74
2021/12/30 08:59:10;;;;;;;7.10;4.20;;;;;;;4.61;85.49;96531.34;104340;1311;38364;-74
2021/12/30 09:01:41;;;;;;;7.10;4.30;;;;;;;4.49;85.39;96540.52;104365;1311;30310;-74
2021/12/30 09:04:12;;;;;;;8.80;4.00;;;;;;;4.45;85.52;96543.60;104345;1312;43439;-74
2021/12/30 09:06:43;;;;;;;7.30;4.50;;;;;;;4.42;85.20;96536.33;104364;1311;31777;-74
2021/12/30 09:09:15;;;;;;;8.60;4.80;;;;;;;4.41;85.30;96538.84;104352;1310;43773;-74
2021/12/30 09:11:48;;;;;;;7.70;4.80;;;;;;;4.43;85.49;96534.09;104384;1309;31611;-74
2021/12/30 09:14:20;;;;;;;6.40;4.20;;;;;;;4.47;85.43;96534.02;104433;1311;35666;-74
2021/12/30 09:16:51;;;;;;;7.80;4.50;;;;;;;4.47;85.10;96535.98;104424;1312;46709;-74
2021/12/30 09:19:23;;;;;;;11.40;4.70;;;;;;;4.47;85.21;96530.67;104486;1311;33873;-74
2021/12/30 09:21:54;;;;;;;8.10;5.00;;;;;;;4.48;84.89;96526.75;104493;1310;32015;-74
2021/12/30 09:24:25;;;;;;;6.60;4.10;;;;;;;4.49;84.84;96531.27;104415;1310;32218;-75
2021/12/30 09:26:56;;;;;;;5.90;3.80;;;;;;;4.50;84.93;96541.84;104370;1311;38599;-74
2021/12/30 09:29:27;;;;;;;13.40;5.30;;;;;;;4.51;84.68;96545.01;104388;1311;44166;-74
2021/12/30 09:31:59;;;;;;;10.20;5.80;;;;;;;4.52;84.65;96547.70;104463;1311;28918;-74
2021/12/30 09:34:30;;;;;;;8.50;5.20;;;;;;;4.54;84.69;96550.27;104413;1311;34928;-75
2021/12/30 09:37:02;;;;;;;9.50;4.90;;;;;;;4.57;84.64;96545.83;104362;1311;42581;-74
2021/12/30 09:39:33;;;;;;;7.60;4.60;;;;;;;4.60;84.74;96545.86;104373;1311;42861;-75
2021/12/30 09:42:05;;;;;;;10.20;4.20;;;;;;;4.65;84.66;96547.84;104385;1307;35860;-75
2021/12/30 09:44:36;;;;;;;8.70;4.40;;;;;;;4.69;84.92;96544.70;104385;1311;33468;-74
2021/12/30 09:47:07;;;;;;;8.30;4.60;;;;;;;4.71;84.87;96546.29;104436;1311;28312;-74
2021/12/30 09:49:38;;;;;;;8.60;4.80;;;;;;;4.73;84.92;96539.59;104306;1313;33648;-74
2021/12/30 09:52:09;;;;;;;8.60;4.50;;;;;;;4.79;84.87;96540.56;104414;1311;29989;-74
2021/12/30 09:54:40;;;;;;;7.20;3.70;;;;;;;4.84;85.00;96533.38;104462;1311;37957;-74
2021/12/30 09:57:10;;;;;;;8.90;4.40;;;;;;;4.93;84.88;96530.81;104462;1311;32167;-74
2021/12/30 09:59:41;;;;;;;9.10;4.80;;;;;;;5.03;84.77;96528.05;104394;1310;34850;-74
2021/12/30 10:02:12;;;;;;;7.00;4.40;;;;;;;5.13;84.43;96537.05;104423;1311;36391;-75
2021/12/30 10:04:43;;;;;;;9.70;5.10;;;;;;;5.20;84.57;96525.09;104431;1311;36114;-74
2021/12/30 10:07:22;;;;;;;8.80;4.00;;;;;;;5.25;84.30;96523.95;104384;1310;33635;-74
2021/12/30 10:10:00;;;;;;;11.00;5.50;;;;;;;5.30;84.03;96519.89;104508;1311;32226;-75
2021/12/30 10:12:40;;;;;;;11.30;5.20;;;;;;;5.32;83.65;96517.18;104430;1311;46978;-75
2021/12/30 10:15:11;;;;;;;7.70;4.20;;;;;;;5.35;83.37;96515.50;104346;1312;44316;-74
2021/12/30 10:17:42;;;;;;;9.80;4.80;;;;;;;5.34;83.37;96513.83;104395;1311;44444;-74
2021/12/30 10:20:24;;;;;;;7.20;4.70;;;;;;;5.33;83.23;96509.56;104419;1311;45049;-74
2021/12/30 10:22:57;;;;;;;5.30;3.70;;;;;;;5.34;83.40;96515.20;104435;1311;33458;-75
2021/12/30 10:25:31;;;;;;;8.10;4.50;;;;;;;5.34;83.13;96519.10;104397;1311;31238;-74
2021/12/30 10:28:20;;;;;;;7.60;4.20;;;;;;;5.29;83.01;96519.27;104451;1310;34748;-75
2021/12/30 10:30:54;;;;;;;7.40;4.50;;;;;;;5.25;83.45;96521.01;104549;1311;37087;-74
2021/12/30 10:33:28;;;;;;;7.80;4.60;;;;;;;5.23;83.73;96520.77;104437;1311;39820;-75
2021/12/30 10:35:59;;;;;;;7.10;3.50;;;;;;;5.28;84.10;96526.97;104414;1311;29350;-74
2021/12/30 10:38:33;;;;;;;6.70;4.00;;;;;;;5.38;84.07;96531.13;104350;1312;33185;-74
2021/12/30 10:41:06;;;;;;;6.50;3.40;;;;;;;5.45;84.06;96529.94;104392;1310;28858;-75
2021/12/30 10:43:45;;;;;;;6.30;3.80;;;;;;;5.50;83.76;96528.23;104391;1312;34691;-74
2021/12/30 10:46:19;;;;;;;6.60;3.60;;;;;;;5.59;83.94;96525.34;104367;1311;32960;-75
2021/12/30 10:48:59;;;;;;;8.30;4.40;;;;;;;5.71;83.57;96513.52;104492;1311;47614;-75
2021/12/30 10:51:37;;;;;;;8.10;4.30;;;;;;;5.80;83.82;96506.98;104347;1311;44351;-74
2021/12/30 10:54:15;;;;;;;7.20;3.80;;;;;;;5.89;83.64;96500.02;104385;1312;38456;-75
2021/12/30 10:56:49;;;;;;;7.70;4.50;;;;;;;5.96;83.02;96498.94;104356;1311;41100;-75
2021/12/30 10:59:28;;;;;;;6.60;3.60;;;;;;;5.90;82.67;96493.77;104473;1311;40629;-75
2021/12/30 11:02:04;;;;;;;7.30;3.80;;;;;;;5.86;82.77;96489.97;104395;1312;41596;-75
2021/12/30 11:04:38;;;;;;;6.40;3.60;;;;;;;5.81;82.75;96488.00;104379;1312;39308;-75
2021/12/30 11:07:17;;;;;;;6.50;4.10;;;;;;;5.80;82.78;96491.15;104416;1311;31835;-75
2021/12/30 11:12:44;;;;;;;7.50;4.00;;;;;;;5.85;82.95;96490.13;98715;1313;959101;-75
2021/12/30 11:15:24;;;;;;;6.00;3.50;;;;;;;5.86;82.51;96487.73;103194;1317;27936;-75
2021/12/30 11:18:10;;;;;;;6.30;3.90;;;;;;;5.83;82.48;96483.27;103316;1316;89257;-75
2021/12/30 11:20:45;;;;;;;6.90;3.40;;;;;;;5.84;82.75;96487.65;103149;1316;86335;-75
2021/12/30 11:23:18;;;;;;;7.80;3.60;;;;;;;5.89;82.87;96495.42;103420;1317;73058;-75
2021/12/30 11:25:49;;;;;;;4.90;2.30;;;;;;;5.91;83.05;96498.75;103478;1317;61281;-75
2021/12/30 11:28:20;;;;;;;8.80;3.70;;;;;;;5.92;83.22;96497.18;103495;1317;32366;-75
2021/12/30 11:30:52;;;;;;;5.90;3.50;;;;;;;5.92;83.23;96497.13;103257;1316;69042;-75
2021/12/30 11:33:23;;;;;;;5.30;3.00;;;;;;;5.91;83.63;96502.95;103372;1318;29807;-75
2021/12/30 11:35:56;;;;;;;3.30;2.00;;;;;;;5.90;83.71;96502.39;103416;1317;29615;-75
2021/12/30 11:38:28;;;;;;;2.00;1.40;;;;;;;5.87;84.26;96499.45;102894;1316;90613;-75
2021/12/30 11:41:00;;;;;;;3.10;2.30;;;;;;;5.84;84.28;96506.91;102754;1317;95235;-75
2021/12/30 11:43:43;;;;;;;5.20;2.90;;;;;;;5.79;84.52;96507.77;103346;1317;86612;-75
2021/12/30 11:46:39;;;;;;;3.30;1.70;;;;;;;5.73;85.02;96504.39;103351;1317;42832;-75
2021/12/30 11:49:13;;;;;;;2.50;1.60;;;;;;;5.69;85.47;96510.35;103403;1317;28644;-74
2021/12/30 11:51:50;;;;;;;3.70;1.90;;;;;;;5.62;85.69;96510.22;103225;1317;34992;-74
2021/12/30 11:54:42;;;;;;;1.80;1.30;;;;;;;5.58;86.37;96518.02;103468;1318;35388;-74